Time;durP1;ratioP1;P1;durP2;ratioP2;P2;SDS_P1;SDS_P2;PMS_P1;PMS_P2;Temp;Humidity;BMP_temperature;BMP_pressure;BME280_temperature;BME280_humidity;BME280_pressure;Samples;Min_cycle;Max_cycle;Signal;HPM_P1;HPM_P2
2022/12/11 00:01:26;;;;;;;;;;;;;;;;;;10517790;28;20043;-74
2022/12/11 00:06:39;;;;;;;26.73;9.23;;;;;;;;;;10493410;28;19985;-74
2022/12/11 00:11:47;;;;;;;36.73;11.90;;;;;;;;;;10510796;28;20037;-74
2022/12/11 00:16:50;;;;;;;36.03;12.07;;;;;;;;;;10515526;28;20044;-74
2022/12/11 00:21:53;;;;;;;33.73;9.73;;;;;;;;;;10500997;28;20057;-74
2022/12/11 00:26:57;;;;;;;28.47;9.47;;;;;;;;;;10530062;28;20046;-74
2022/12/11 00:32:01;;;;;;;34.00;11.63;;;;;;;;;;10517703;28;20059;-74
2022/12/11 00:37:03;;;;;;;27.60;8.63;;;;;;;;;;10502827;28;20044;-73
2022/12/11 00:42:08;;;;;;;37.73;12.93;;;;;;;;;;10491527;28;20040;-75
2022/12/11 00:47:15;;;;;;;23.23;7.80;;;;;;;;;;10516572;28;20123;-74
2022/12/11 00:52:19;;;;;;;33.37;11.70;;;;;;;;;;10501085;28;20036;-75
2022/12/11 00:57:24;;;;;;;28.35;10.25;;;;;;;;;;10499777;28;20051;-74
2022/12/11 01:02:28;;;;;;;19.63;7.17;;;;;;;;;;10509325;28;20085;-74
2022/12/11 01:07:31;;;;;;;25.50;8.93;;;;;;;;;;10519835;28;20044;-74
2022/12/11 01:12:36;;;;;;;27.13;9.13;;;;;;;;;;10516125;28;20039;-75
2022/12/11 01:17:39;;;;;;;25.50;8.73;;;;;;;;;;10511822;28;20048;-74
2022/12/11 01:22:42;;;;;;;33.97;9.60;;;;;;;;;;10521119;28;20035;-74
2022/12/11 01:27:46;;;;;;;13.67;4.63;;;;;;;;;;10509707;28;20044;-74
2022/12/11 01:32:49;;;;;;;31.17;10.93;;;;;;;;;;10503478;28;20414;-74
2022/12/11 01:37:53;;;;;;;;;;;;;;;;;;10517035;28;20044;-74
2022/12/11 01:42:58;;;;;;;16.13;6.87;;;;;;;;;;10513855;28;19974;-74
2022/12/11 01:48:04;;;;;;;22.20;7.67;;;;;;;;;;10510054;28;20097;-75
2022/12/11 01:53:09;;;;;;;29.50;10.10;;;;;;;;;;10507340;28;20044;-75
2022/12/11 01:58:15;;;;;;;27.57;8.77;;;;;;;;;;10489135;28;20139;-75
2022/12/11 02:03:18;;;;;;;18.53;7.67;;;;;;;;;;10493046;28;20032;-75
2022/12/11 02:08:21;;;;;;;24.87;9.47;;;;;;;;;;10514743;28;20052;-75
2022/12/11 02:13:34;;;;;;;28.73;9.40;;;;;;;;;;10490560;28;20081;-75
2022/12/11 02:18:41;;;;;;;18.50;6.50;;;;;;;;;;10499008;28;20062;-76
2022/12/11 02:23:59;;;;;;;33.77;10.70;;;;;;;;;;10500447;28;20550;-76
2022/12/11 02:29:06;;;;;;;31.73;10.50;;;;;;;;;;10512605;28;20426;-74
2022/12/11 02:34:11;;;;;;;23.40;7.93;;;;;;;;;;10520268;28;20048;-75
2022/12/11 02:39:15;;;;;;;29.40;9.23;;;;;;;;;;10487357;28;20059;-75
2022/12/11 02:44:24;;;;;;;28.30;9.77;;;;;;;;;;10514627;28;20036;-76
2022/12/11 02:49:29;;;;;;;12.53;5.17;;;;;;;;;;10489568;28;20155;-75
2022/12/11 02:54:34;;;;;;;19.45;6.82;;;;;;;;;;10516897;28;20394;-75
2022/12/11 02:59:41;;;;;;;28.53;9.50;;;;;;;;;;10509178;28;20052;-75
2022/12/11 03:04:46;;;;;;;19.50;7.33;;;;;;;;;;10509032;28;20039;-75
2022/12/11 03:09:49;;;;;;;23.43;8.77;;;;;;;;;;10504488;28;20058;-75
2022/12/11 03:14:54;;;;;;;17.20;6.03;;;;;;;;;;10507568;28;20044;-74
2022/12/11 03:20:03;;;;;;;25.90;8.53;;;;;;;;;;10461483;28;20047;-74
2022/12/11 03:25:11;;;;;;;23.07;8.77;;;;;;;;;;10483557;28;20194;-74
2022/12/11 03:30:17;;;;;;;10.83;4.53;;;;;;;;;;10506657;28;20198;-74
2022/12/11 03:35:22;;;;;;;24.30;8.40;;;;;;;;;;10518799;28;20048;-74
2022/12/11 03:40:26;;;;;;;22.63;9.07;;;;;;;;;;10492813;28;20036;-75
2022/12/11 03:45:34;;;;;;;26.67;8.67;;;;;;;;;;10493336;28;20055;-74
2022/12/11 03:50:38;;;;;;;22.20;8.17;;;;;;;;;;10517931;28;20044;-74
2022/12/11 03:55:44;;;;;;;16.13;6.77;;;;;;;;;;10490484;28;20044;-75
2022/12/11 04:00:55;;;;;;;21.33;5.60;;;;;;;;;;10513553;28;20147;-75
2022/12/11 04:05:58;;;;;;;24.53;7.90;;;;;;;;;;10514309;28;20135;-75
2022/12/11 04:16:25;;;;;;;21.27;7.87;;;;;;;;;;10501525;28;20052;-75
2022/12/11 04:26:49;;;;;;;18.07;7.13;;;;;;;;;;10509678;28;20044;-74
2022/12/11 04:31:54;;;;;;;15.15;4.75;;;;;;;;;;10512012;28;20127;-75
2022/12/11 04:37:00;;;;;;;22.20;7.93;;;;;;;;;;10522033;28;20052;-76
2022/12/11 04:42:03;;;;;;;21.37;6.77;;;;;;;;;;10474713;28;20036;-78
2022/12/11 04:47:08;;;;;;;6.90;2.87;;;;;;;;;;10515802;28;20176;-75
2022/12/11 04:52:10;;;;;;;17.43;6.90;;;;;;;;;;10499727;28;20068;-74
2022/12/11 04:57:14;;;;;;;14.43;5.50;;;;;;;;;;10509539;28;20123;-74
2022/12/11 05:02:18;;;;;;;16.10;6.47;;;;;;;;;;10474648;28;20028;-75
2022/12/11 05:07:23;;;;;;;12.47;4.83;;;;;;;;;;10512990;28;20032;-74
2022/12/11 05:12:26;;;;;;;15.18;5.65;;;;;;;;;;10513822;28;20040;-75
2022/12/11 05:17:31;;;;;;;11.87;3.83;;;;;;;;;;10516341;28;20241;-75
2022/12/11 05:22:35;;;;;;;15.50;4.10;;;;;;;;;;10515854;28;20067;-75
2022/12/11 05:27:38;;;;;;;14.95;5.00;;;;;;;;;;10516023;28;20037;-75
2022/12/11 05:32:42;;;;;;;12.60;5.03;;;;;;;;;;10508546;28;20067;-75
2022/12/11 05:37:45;;;;;;;13.83;5.57;;;;;;;;;;10518392;28;20039;-75
2022/12/11 05:42:48;;;;;;;12.80;4.40;;;;;;;;;;10498561;28;20505;-74
2022/12/11 05:47:52;;;;;;;12.80;4.70;;;;;;;;;;10521697;28;20036;-73
2022/12/11 05:52:55;;;;;;;13.48;4.45;;;;;;;;;;10514122;28;20043;-75
2022/12/11 05:57:58;;;;;;;14.57;5.13;;;;;;;;;;10496004;28;20118;-75
2022/12/11 06:03:02;;;;;;;15.23;5.27;;;;;;;;;;10522022;28;20047;-75
2022/12/11 06:08:07;;;;;;;11.97;3.77;;;;;;;;;;10520481;28;20221;-75
2022/12/11 06:13:09;;;;;;;10.53;4.03;;;;;;;;;;10489885;28;20047;-75
2022/12/11 06:18:14;;;;;;;16.07;4.93;;;;;;;;;;10499342;28;20040;-75
2022/12/11 06:23:17;;;;;;;17.43;4.87;;;;;;;;;;10515813;28;20035;-75
2022/12/11 06:28:20;;;;;;;16.55;4.82;;;;;;;;;;10495171;28;20079;-76
2022/12/11 06:33:25;;;;;;;18.20;5.87;;;;;;;;;;10513790;28;20070;-74
2022/12/11 06:38:30;;;;;;;17.00;5.47;;;;;;;;;;10509647;28;20048;-75
2022/12/11 06:43:36;;;;;;;4.40;2.23;;;;;;;;;;10507218;28;20044;-74
2022/12/11 06:48:42;;;;;;;18.30;6.63;;;;;;;;;;10485307;28;20044;-74
2022/12/11 06:53:45;;;;;;;17.60;5.77;;;;;;;;;;10514040;28;20060;-74
2022/12/11 06:58:48;;;;;;;15.40;4.87;;;;;;;;;;10516424;28;20093;-75
2022/12/11 07:03:56;;;;;;;22.60;7.73;;;;;;;;;;10491192;28;20032;-76
2022/12/11 07:08:59;;;;;;;21.53;7.40;;;;;;;;;;10514495;28;20040;-75
2022/12/11 07:14:02;;;;;;;10.67;4.00;;;;;;;;;;10491197;28;20028;-74
2022/12/11 07:19:07;;;;;;;13.43;4.83;;;;;;;;;;10498854;28;20590;-76
2022/12/11 07:24:11;;;;;;;17.57;5.57;;;;;;;;;;10516804;28;20066;-74
2022/12/11 07:29:14;;;;;;;;;;;;;;;;;;10519939;28;20052;-75
2022/12/11 07:34:18;;;;;;;17.70;6.77;;;;;;;;;;10518389;28;19926;-74
2022/12/11 07:39:21;;;;;;;20.98;7.45;;;;;;;;;;10518420;28;20529;-75
2022/12/11 07:44:30;;;;;;;5.10;1.73;;;;;;;;;;10524323;28;20516;-75
2022/12/11 07:49:35;;;;;;;15.80;4.80;;;;;;;;;;10520814;28;20157;-75
2022/12/11 07:54:38;;;;;;;14.07;5.27;;;;;;;;;;10518757;28;20035;-75
2022/12/11 07:59:48;;;;;;;20.93;7.17;;;;;;;;;;10525136;28;20040;-75
2022/12/11 08:04:52;;;;;;;17.27;6.80;;;;;;;;;;10532444;28;20105;-76
2022/12/11 08:10:00;;;;;;;11.90;3.90;;;;;;;;;;10499126;28;20059;-74
2022/12/11 08:15:04;;;;;;;23.93;8.20;;;;;;;;;;10525605;28;20045;-74
2022/12/11 08:20:08;;;;;;;;;;;;;;;;;;10515052;28;20113;-74
2022/12/11 08:25:13;;;;;;;18.42;6.15;;;;;;;;;;10509597;28;20045;-75
2022/12/11 08:30:16;;;;;;;23.33;7.30;;;;;;;;;;10514200;28;20048;-74
2022/12/11 08:35:19;;;;;;;12.97;5.30;;;;;;;;;;10492510;28;20504;-75
2022/12/11 08:40:23;;;;;;;18.83;6.73;;;;;;;;;;10519159;28;20418;-75
2022/12/11 08:45:28;;;;;;;22.27;8.27;;;;;;;;;;10496855;28;20062;-75
2022/12/11 08:50:31;;;;;;;23.60;7.63;;;;;;;;;;10495488;28;20101;-75
2022/12/11 08:55:36;;;;;;;22.03;8.70;;;;;;;;;;10499990;28;20128;-74
2022/12/11 09:00:41;;;;;;;20.67;8.07;;;;;;;;;;10496298;28;20032;-75
2022/12/11 09:05:44;;;;;;;;;;;;;;;;;;10504180;28;20581;-75
2022/12/11 09:10:50;;;;;;;20.50;7.03;;;;;;;;;;10510969;28;19924;-75
2022/12/11 09:15:53;;;;;;;18.23;7.47;;;;;;;;;;10508974;28;20040;-76
2022/12/11 09:20:59;;;;;;;19.57;7.13;;;;;;;;;;10521000;28;20474;-76
2022/12/11 09:26:07;;;;;;;14.97;6.50;;;;;;;;;;10511928;28;20036;-76
2022/12/11 09:31:12;;;;;;;18.43;6.27;;;;;;;;;;10490062;28;20040;-75
2022/12/11 09:36:20;;;;;;;18.10;7.97;;;;;;;;;;10493536;28;20541;-75
2022/12/11 09:41:38;;;;;;;15.90;6.57;;;;;;;;;;10505508;28;20409;-75
2022/12/11 09:46:41;;;;;;;17.17;7.07;;;;;;;;;;10513452;28;20032;-75
2022/12/11 09:51:48;;;;;;;15.27;6.07;;;;;;;;;;10496160;28;20046;-75
2022/12/11 09:56:56;;;;;;;19.13;7.13;;;;;;;;;;10505526;28;20704;-76
2022/12/11 10:02:03;;;;;;;12.90;5.47;;;;;;;;;;10510049;28;20036;-75
2022/12/11 10:07:11;;;;;;;18.03;7.27;;;;;;;;;;10504095;28;20055;-75
2022/12/11 10:12:28;;;;;;;16.07;5.73;;;;;;;;;;10506549;28;20063;-75
2022/12/11 10:17:35;;;;;;;17.10;6.23;;;;;;;;;;10505664;28;20070;-75
2022/12/11 10:22:39;;;;;;;17.30;7.63;;;;;;;;;;10519936;28;20148;-76
2022/12/11 10:27:45;;;;;;;14.57;6.75;;;;;;;;;;10509166;28;20499;-75
2022/12/11 10:32:54;;;;;;;16.40;6.95;;;;;;;;;;10492395;28;20114;-76
2022/12/11 10:38:01;;;;;;;12.45;5.85;;;;;;;;;;10511641;28;20032;-75
2022/12/11 10:43:07;;;;;;;12.32;5.70;;;;;;;;;;10495016;28;20032;-76
2022/12/11 10:48:12;;;;;;;13.48;6.20;;;;;;;;;;10502612;28;20046;-74
2022/12/11 10:53:20;;;;;;;17.27;6.63;;;;;;;;;;10496522;28;20033;-74
2022/12/11 10:58:25;;;;;;;10.32;3.92;;;;;;;;;;10518092;28;20074;-75
2022/12/11 11:03:28;;;;;;;13.73;6.13;;;;;;;;;;10524440;28;20044;-75
2022/12/11 11:08:38;;;;;;;13.50;5.97;;;;;;;;;;10512393;28;20036;-75
2022/12/11 11:13:44;;;;;;;12.98;5.97;;;;;;;;;;10515242;28;20037;-75
2022/12/11 11:18:50;;;;;;;15.93;7.03;;;;;;;;;;10501183;28;20044;-76
2022/12/11 11:23:54;;;;;;;15.13;5.57;;;;;;;;;;10516489;28;20029;-76
2022/12/11 11:29:07;;;;;;;;;;;;;;;;;;10506638;28;20047;-76
2022/12/11 11:34:19;;;;;;;11.23;5.27;;;;;;;;;;10514460;28;19920;-74
2022/12/11 11:39:27;;;;;;;14.93;6.40;;;;;;;;;;10503915;28;20040;-75
2022/12/11 11:44:34;;;;;;;13.68;5.78;;;;;;;;;;10489844;28;20036;-74
2022/12/11 11:49:46;;;;;;;16.60;6.88;;;;;;;;;;10531333;28;20091;-75
2022/12/11 11:54:52;;;;;;;13.20;5.25;;;;;;;;;;10512352;28;20043;-75
2022/12/11 12:00:06;;;;;;;13.30;5.47;;;;;;;;;;10505433;28;20060;-75
2022/12/11 12:05:13;;;;;;;13.82;6.10;;;;;;;;;;10514236;28;20033;-74
2022/12/11 12:10:19;;;;;;;13.38;5.22;;;;;;;;;;10524388;28;20123;-76
2022/12/11 12:15:38;;;;;;;15.85;6.47;;;;;;;;;;10491966;28;20066;-75
2022/12/11 12:20:46;;;;;;;9.97;4.83;;;;;;;;;;10509627;28;20071;-76
2022/12/11 12:25:54;;;;;;;15.90;6.20;;;;;;;;;;10505863;28;20032;-74
2022/12/11 12:31:08;;;;;;;9.23;4.80;;;;;;;;;;10499734;28;20128;-75
2022/12/11 12:36:17;;;;;;;9.77;5.25;;;;;;;;;;10511663;28;20336;-76
2022/12/11 12:41:22;;;;;;;11.50;5.82;;;;;;;;;;10517124;28;20059;-76
2022/12/11 12:46:29;;;;;;;9.95;5.18;;;;;;;;;;10510383;28;20040;-77
2022/12/11 12:51:36;;;;;;;8.77;4.45;;;;;;;;;;10496324;28;20048;-76
2022/12/11 12:56:42;;;;;;;8.00;3.42;;;;;;;;;;10511783;28;20490;-76
2022/12/11 13:01:51;;;;;;;10.93;4.85;;;;;;;;;;10514305;28;20072;-75
2022/12/11 13:06:57;;;;;;;9.57;4.43;;;;;;;;;;10519963;28;20044;-76
2022/12/11 13:12:00;;;;;;;7.00;2.75;;;;;;;;;;10508422;28;20281;-75
2022/12/11 13:17:08;;;;;;;7.32;4.18;;;;;;;;;;10511249;28;20067;-75
2022/12/11 13:22:23;;;;;;;8.27;3.45;;;;;;;;;;10512809;28;20119;-76
2022/12/11 13:27:38;;;;;;;8.57;3.00;;;;;;;;;;10520019;28;20515;-75
2022/12/11 13:32:50;;;;;;;7.80;3.77;;;;;;;;;;10508819;28;20106;-75
2022/12/11 13:37:56;;;;;;;8.93;4.13;;;;;;;;;;10501872;28;20073;-75
2022/12/11 13:43:03;;;;;;;8.00;3.10;;;;;;;;;;10517542;28;20345;-76
2022/12/11 13:48:16;;;;;;;7.90;3.60;;;;;;;;;;10498084;28;20036;-75
2022/12/11 13:53:24;;;;;;;7.03;3.73;;;;;;;;;;10498274;28;20121;-75
2022/12/11 13:58:28;;;;;;;7.63;4.00;;;;;;;;;;10517299;28;20040;-76
2022/12/11 14:03:31;;;;;;;5.57;2.63;;;;;;;;;;10507372;28;20381;-77
2022/12/11 14:08:37;;;;;;;7.90;3.20;;;;;;;;;;10497432;28;20078;-75
2022/12/11 14:13:40;;;;;;;8.33;2.77;;;;;;;;;;10491044;28;20032;-75
2022/12/11 14:18:44;;;;;;;;;;;;;;;;;;10510963;28;20035;-75
2022/12/11 14:23:53;;;;;;;9.53;3.33;;;;;;;;;;10508707;28;19959;-75
2022/12/11 14:28:57;;;;;;;14.37;3.23;;;;;;;;;;10487504;28;20032;-75
2022/12/11 14:34:02;;;;;;;7.63;2.80;;;;;;;;;;10495320;28;20291;-75
2022/12/11 14:39:10;;;;;;;7.60;3.23;;;;;;;;;;10516499;28;20040;-75
2022/12/11 14:44:21;;;;;;;7.13;3.10;;;;;;;;;;10518863;28;20040;-76
2022/12/11 14:49:26;;;;;;;8.33;3.77;;;;;;;;;;10513289;28;20032;-76
2022/12/11 14:54:34;;;;;;;9.83;4.33;;;;;;;;;;10514634;28;20510;-74
2022/12/11 14:59:40;;;;;;;9.57;4.37;;;;;;;;;;10507015;28;20127;-74
2022/12/11 15:04:44;;;;;;;13.43;4.40;;;;;;;;;;10510586;28;20040;-74
2022/12/11 15:09:50;;;;;;;14.15;4.65;;;;;;;;;;10510730;28;20132;-75
2022/12/11 15:14:54;;;;;;;10.73;4.43;;;;;;;;;;10512539;28;20033;-76
2022/12/11 15:20:03;;;;;;;7.73;2.97;;;;;;;;;;10503042;28;20040;-74
2022/12/11 15:25:17;;;;;;;9.93;3.40;;;;;;;;;;10494721;28;20032;-75
2022/12/11 15:30:31;;;;;;;2.80;1.13;;;;;;;;;;10511175;28;20515;-74
2022/12/11 15:35:34;;;;;;;7.28;2.72;;;;;;;;;;10510425;28;20044;-75
2022/12/11 15:40:39;;;;;;;9.30;3.87;;;;;;;;;;10500402;28;20398;-75
2022/12/11 15:45:44;;;;;;;8.43;4.33;;;;;;;;;;10510774;28;20134;-74
2022/12/11 15:50:50;;;;;;;17.40;6.13;;;;;;;;;;10522060;28;20044;-74
2022/12/11 15:55:55;;;;;;;8.50;3.03;;;;;;;;;;10509023;28;20040;-75
2022/12/11 16:00:58;;;;;;;14.40;5.57;;;;;;;;;;10508034;28;20036;-74
2022/12/11 16:06:02;;;;;;;6.85;3.30;;;;;;;;;;10519245;28;20377;-74
2022/12/11 16:11:09;;;;;;;13.60;5.70;;;;;;;;;;10514968;28;20040;-75
2022/12/11 16:16:13;;;;;;;9.00;3.37;;;;;;;;;;10501320;28;20044;-74
2022/12/11 16:21:21;;;;;;;9.53;3.90;;;;;;;;;;10516433;28;20109;-74
2022/12/11 16:26:25;;;;;;;5.77;3.00;;;;;;;;;;10529546;28;20068;-75
2022/12/11 16:31:29;;;;;;;;;;;;;;;;;;10518107;28;20039;-74
2022/12/11 16:36:32;;;;;;;10.50;4.13;;;;;;;;;;10515580;28;20387;-75
2022/12/11 16:41:38;;;;;;;14.07;6.00;;;;;;;;;;10525481;28;20171;-75
2022/12/11 16:46:41;;;;;;;14.80;6.10;;;;;;;;;;10518889;28;20036;-74
2022/12/11 16:51:44;;;;;;;11.43;3.33;;;;;;;;;;10507029;28;20123;-75
2022/12/11 16:56:48;;;;;;;12.03;5.00;;;;;;;;;;10522143;28;20044;-75
2022/12/11 17:01:51;;;;;;;10.00;4.30;;;;;;;;;;10516164;28;20115;-76
2022/12/11 17:06:59;;;;;;;13.60;6.73;;;;;;;;;;10507051;28;20032;-74
2022/12/11 17:12:05;;;;;;;15.07;5.75;;;;;;;;;;10512308;28;20040;-74
2022/12/11 17:17:08;;;;;;;7.37;3.60;;;;;;;;;;10513081;28;20035;-74
2022/12/11 17:22:10;;;;;;;6.90;2.93;;;;;;;;;;10506688;28;20060;-74
2022/12/11 17:27:14;;;;;;;9.53;4.10;;;;;;;;;;10494509;28;20039;-74
2022/12/11 17:32:18;;;;;;;;;;;;;;;;;;10509831;28;20040;-74
2022/12/11 17:37:22;;;;;;;11.57;4.00;;;;;;;;;;10505499;28;20239;-74
2022/12/11 17:42:26;;;;;;;18.00;6.63;;;;;;;;;;10497599;28;20383;-74
2022/12/11 17:47:29;;;;;;;14.50;5.93;;;;;;;;;;10514938;28;20680;-76
2022/12/11 17:52:32;;;;;;;10.27;4.70;;;;;;;;;;10512012;28;20487;-74
2022/12/11 17:57:40;;;;;;;13.83;5.43;;;;;;;;;;10488546;28;21345;-74
2022/12/11 18:02:44;;;;;;;10.23;4.47;;;;;;;;;;10509067;28;20043;-74
2022/12/11 18:07:49;;;;;;;4.97;2.67;;;;;;;;;;10495333;28;20035;-75
2022/12/11 18:13:00;;;;;;;17.90;6.70;;;;;;;;;;10492406;28;20797;-75
2022/12/11 18:18:03;;;;;;;17.52;6.82;;;;;;;;;;10504886;28;20033;-74
2022/12/11 18:23:07;;;;;;;7.13;3.63;;;;;;;;;;10504072;28;20543;-75
2022/12/11 18:28:12;;;;;;;17.40;6.10;;;;;;;;;;10508728;28;20036;-75
2022/12/11 18:33:17;;;;;;;19.83;5.73;;;;;;;;;;10513127;28;20508;-76
2022/12/11 18:38:20;;;;;;;;;;;;;;;;;;10501428;28;20550;-76
2022/12/11 18:43:24;;;;;;;9.63;3.53;;;;;;;;;;10508328;28;19919;-76
2022/12/11 18:48:28;;;;;;;16.63;5.80;;;;;;;;;;10484451;28;20123;-77
2022/12/11 18:53:33;;;;;;;19.17;6.55;;;;;;;;;;10485227;28;20040;-75
2022/12/11 18:58:38;;;;;;;19.05;6.82;;;;;;;;;;10502285;28;20132;-76
2022/12/11 19:03:41;;;;;;;18.43;6.40;;;;;;;;;;10483425;28;20299;-77
2022/12/11 19:08:44;;;;;;;15.83;6.33;;;;;;;;;;10498065;28;20317;-77
2022/12/11 19:13:49;;;;;;;18.57;6.47;;;;;;;;;;10528842;28;20044;-76
2022/12/11 19:18:52;;;;;;;20.20;7.83;;;;;;;;;;10516394;28;20485;-77
2022/12/11 19:23:59;;;;;;;17.50;6.80;;;;;;;;;;10521174;28;20125;-77
2022/12/11 19:29:04;;;;;;;17.63;6.00;;;;;;;;;;10512949;28;20506;-75
2022/12/11 19:34:08;;;;;;;19.10;5.73;;;;;;;;;;10513497;28;20101;-76
2022/12/11 19:39:11;;;;;;;13.65;4.63;;;;;;;;;;10515528;28;20400;-76
2022/12/11 19:44:19;;;;;;;15.05;5.40;;;;;;;;;;10510731;28;20036;-76
2022/12/11 19:49:22;;;;;;;17.33;6.57;;;;;;;;;;10512144;28;20378;-77
2022/12/11 19:54:27;;;;;;;15.00;5.43;;;;;;;;;;10511537;28;20131;-77
2022/12/11 19:59:33;;;;;;;11.13;5.00;;;;;;;;;;10507935;28;20051;-77
2022/12/11 20:04:36;;;;;;;17.30;5.83;;;;;;;;;;10523182;28;20048;-77
2022/12/11 20:09:40;;;;;;;18.70;7.57;;;;;;;;;;10499830;28;20484;-76
2022/12/11 20:14:46;;;;;;;22.53;7.93;;;;;;;;;;10522825;28;20396;-77
2022/12/11 20:19:49;;;;;;;21.03;7.70;;;;;;;;;;10521209;28;20222;-78
2022/12/11 20:24:55;;;;;;;16.08;6.20;;;;;;;;;;10509778;28;20043;-76
2022/12/11 20:29:59;;;;;;;10.33;3.77;;;;;;;;;;10520102;28;20559;-75
2022/12/11 20:35:09;;;;;;;12.57;5.50;;;;;;;;;;10523966;28;20032;-78
2022/12/11 20:40:14;;;;;;;18.60;6.90;;;;;;;;;;10520780;28;20055;-78
2022/12/11 20:45:22;;;;;;;12.20;5.20;;;;;;;;;;10526125;28;20131;-75
2022/12/11 20:50:25;;;;;;;20.17;6.20;;;;;;;;;;10533416;28;20047;-76
2022/12/11 20:55:28;;;;;;;9.53;3.67;;;;;;;;;;10530412;28;20036;-76
2022/12/11 21:00:35;;;;;;;15.73;6.37;;;;;;;;;;10518020;28;20501;-76
2022/12/11 21:05:40;;;;;;;17.27;6.33;;;;;;;;;;10520131;28;20044;-76
2022/12/11 21:10:45;;;;;;;18.03;7.23;;;;;;;;;;10506695;28;20035;-76
2022/12/11 21:15:52;;;;;;;17.87;7.23;;;;;;;;;;10495362;28;20054;-76
2022/12/11 21:20:56;;;;;;;18.93;5.40;;;;;;;;;;10494536;28;20473;-76
2022/12/11 21:26:00;;;;;;;15.20;5.03;;;;;;;;;;10503971;28;20040;-76
2022/12/11 21:31:08;;;;;;;9.17;4.80;;;;;;;;;;10511809;28;20078;-77
2022/12/11 21:36:12;;;;;;;9.87;4.77;;;;;;;;;;10494953;28;20050;-76
2022/12/11 21:41:15;;;;;;;;;;;;;;;;;;10522534;28;20052;-77
2022/12/11 21:46:21;;;;;;;4.83;2.80;;;;;;;;;;10523531;28;20389;-78
2022/12/11 21:51:33;;;;;;;11.32;4.85;;;;;;;;;;10498733;28;20550;-76
2022/12/11 21:56:41;;;;;;;5.00;1.70;;;;;;;;;;10516381;28;20067;-76
2022/12/11 22:01:44;;;;;;;;;;;;;;;;;;10518775;28;20096;-75
2022/12/11 22:06:54;;;;;;;12.13;4.40;;;;;;;;;;10513290;28;19920;-74
2022/12/11 22:11:57;;;;;;;12.30;4.83;;;;;;;;;;10513505;28;20046;-74
2022/12/11 22:17:00;;;;;;;18.93;7.10;;;;;;;;;;10492287;28;20130;-76
2022/12/11 22:22:05;;;;;;;18.27;7.23;;;;;;;;;;10510624;28;20409;-77
2022/12/11 22:27:08;;;;;;;13.90;5.43;;;;;;;;;;10499897;28;20036;-77
2022/12/11 22:32:11;;;;;;;18.93;7.27;;;;;;;;;;10512190;28;20060;-75
2022/12/11 22:37:16;;;;;;;25.50;6.88;;;;;;;;;;10515501;28;20056;-75
2022/12/11 22:42:21;;;;;;;11.20;4.43;;;;;;;;;;10509261;28;20044;-75
2022/12/11 22:47:25;;;;;;;18.23;6.97;;;;;;;;;;10504856;28;20514;-74
2022/12/11 22:52:29;;;;;;;15.93;6.35;;;;;;;;;;10503386;28;20044;-74
2022/12/11 22:57:32;;;;;;;22.90;8.20;;;;;;;;;;10507471;28;20047;-75
2022/12/11 23:02:36;;;;;;;19.37;6.47;;;;;;;;;;10504001;28;20052;-77
2022/12/11 23:07:50;;;;;;;8.90;3.93;;;;;;;;;;10520520;28;20067;-76
2022/12/11 23:12:54;;;;;;;12.63;5.47;;;;;;;;;;10527369;28;20067;-76
2022/12/11 23:17:57;;;;;;;7.80;3.78;;;;;;;;;;10513547;28;20032;-75
2022/12/11 23:23:03;;;;;;;16.67;6.63;;;;;;;;;;10507686;28;20142;-76
2022/12/11 23:28:06;;;;;;;5.77;3.30;;;;;;;;;;10530806;28;20126;-76
2022/12/11 23:33:10;;;;;;;14.57;6.37;;;;;;;;;;10532724;28;20410;-76
2022/12/11 23:38:17;;;;;;;12.60;5.17;;;;;;;;;;10524801;28;20298;-73
2022/12/11 23:43:22;;;;;;;17.37;7.30;;;;;;;;;;10526804;28;20436;-74
2022/12/11 23:48:25;;;;;;;14.67;5.30;;;;;;;;;;10522653;28;20059;-75
2022/12/11 23:53:30;;;;;;;20.10;6.55;;;;;;;;;;10510627;28;20040;-75
2022/12/11 23:58:36;;;;;;;16.37;6.03;;;;;;;;;;10526001;28;20135;-75
